createdAt,value
2022-07-29T00:00:28.395Z,3.40
2022-07-29T00:00:59.312Z,4.20
2022-07-29T00:01:30.508Z,4.00
2022-07-29T00:02:01.020Z,4.20
2022-07-29T00:02:32.015Z,4.40
2022-07-29T00:03:02.579Z,4.20
2022-07-29T00:03:33.392Z,4.30
2022-07-29T00:04:04.219Z,4.20
2022-07-29T00:04:35.121Z,4.70
2022-07-29T00:05:05.675Z,5.10
2022-07-29T00:05:36.150Z,4.40
2022-07-29T00:06:07.078Z,4.20
2022-07-29T00:06:38.201Z,4.00
2022-07-29T00:07:08.641Z,3.90
2022-07-29T00:07:39.777Z,3.80
2022-07-29T00:08:12.518Z,4.20
2022-07-29T00:08:41.028Z,3.80
2022-07-29T00:09:11.958Z,3.80
2022-07-29T00:09:51.250Z,4.30
2022-07-29T00:10:15.083Z,4.10
2022-07-29T00:10:44.557Z,4.40
2022-07-29T00:11:15.470Z,4.30
2022-07-29T00:11:46.386Z,4.20
2022-07-29T00:12:17.315Z,4.00
2022-07-29T00:12:48.457Z,3.50
2022-07-29T00:13:18.939Z,3.50
2022-07-29T00:13:51.236Z,3.90
2022-07-29T00:14:20.750Z,3.80
2022-07-29T00:14:51.761Z,3.90
2022-07-29T00:15:22.412Z,3.90
2022-07-29T00:15:52.897Z,3.40
2022-07-29T00:16:23.923Z,4.00
2022-07-29T00:16:54.723Z,3.80
2022-07-29T00:17:25.383Z,4.20
2022-07-29T00:17:56.290Z,3.90
2022-07-29T00:18:27.455Z,3.80
2022-07-29T00:19:01.910Z,3.90
2022-07-29T00:19:29.034Z,3.70
2022-07-29T00:20:00.021Z,4.20
2022-07-29T00:20:30.492Z,4.00
2022-07-29T00:21:01.411Z,3.60
2022-07-29T00:21:32.518Z,3.90
2022-07-29T00:22:03.017Z,3.90
2022-07-29T00:22:33.508Z,4.20
2022-07-29T00:23:04.482Z,3.70
2022-07-29T00:23:36.923Z,3.90
2022-07-29T00:24:06.124Z,4.30
2022-07-29T00:24:37.281Z,3.70
2022-07-29T00:25:07.789Z,4.10
2022-07-29T00:25:38.705Z,3.60
2022-07-29T00:26:09.622Z,3.60
2022-07-29T00:26:40.545Z,3.60
2022-07-29T00:27:11.425Z,3.50
2022-07-29T00:27:42.553Z,3.90
2022-07-29T00:28:13.042Z,4.30
2022-07-29T00:28:43.960Z,3.60
2022-07-29T00:29:33.663Z,3.70
2022-07-29T00:29:45.804Z,4.10
2022-07-29T00:30:16.935Z,3.50
2022-07-29T00:30:47.477Z,4.20
2022-07-29T00:31:17.997Z,3.50
2022-07-29T00:31:48.826Z,3.80
2022-07-29T00:32:19.439Z,3.80
2022-07-29T00:32:50.356Z,4.00
2022-07-29T00:33:21.522Z,4.10
2022-07-29T00:33:52.007Z,3.90
2022-07-29T00:34:22.934Z,3.80
2022-07-29T00:34:53.897Z,3.70
2022-07-29T00:35:24.833Z,4.00
2022-07-29T00:35:55.806Z,3.50
2022-07-29T00:36:26.448Z,3.90
2022-07-29T00:36:56.950Z,3.70
2022-07-29T00:37:27.857Z,4.00
2022-07-29T00:37:58.841Z,3.70
2022-07-29T00:38:29.834Z,3.50
2022-07-29T00:39:00.757Z,3.80
2022-07-29T00:39:31.838Z,3.60
2022-07-29T00:40:02.328Z,4.20
2022-07-29T00:40:32.831Z,3.60
2022-07-29T00:41:03.741Z,3.70
2022-07-29T00:41:34.662Z,3.70
2022-07-29T00:42:05.653Z,4.20
2022-07-29T00:42:36.819Z,3.50
2022-07-29T00:43:07.275Z,3.50
2022-07-29T00:43:38.217Z,3.50
2022-07-29T00:44:09.142Z,3.90
2022-07-29T00:44:40.141Z,3.60
2022-07-29T00:45:11.102Z,3.50
2022-07-29T00:45:42.271Z,3.90
2022-07-29T00:46:12.842Z,3.80
2022-07-29T00:46:43.378Z,3.70
2022-07-29T00:47:13.893Z,4.30
2022-07-29T00:47:44.383Z,3.90
2022-07-29T00:48:15.305Z,3.80
2022-07-29T00:48:46.451Z,4.00
2022-07-29T00:49:17.082Z,3.80
2022-07-29T00:49:47.787Z,3.90
2022-07-29T00:50:18.761Z,3.50
2022-07-29T00:50:49.762Z,3.20
2022-07-29T00:51:20.253Z,3.50
2022-07-29T00:51:51.357Z,3.80
2022-07-29T00:52:21.849Z,4.20
2022-07-29T00:52:52.825Z,3.90
2022-07-29T00:53:23.736Z,3.90
2022-07-29T00:53:54.637Z,4.00
2022-07-29T00:54:25.568Z,3.40
2022-07-29T00:54:56.663Z,4.30
2022-07-29T00:55:27.143Z,3.80
2022-07-29T00:55:58.126Z,3.30
2022-07-29T00:56:29.045Z,3.40
2022-07-29T00:57:00.065Z,2.60
2022-07-29T00:57:30.891Z,3.20
2022-07-29T00:58:01.554Z,3.60
2022-07-29T00:58:32.037Z,3.40
2022-07-29T00:59:03.019Z,3.80
2022-07-29T00:59:35.121Z,3.80
2022-07-29T01:00:04.496Z,4.00
2022-07-29T01:00:35.517Z,3.30
2022-07-29T01:01:06.165Z,4.20
2022-07-29T01:01:36.710Z,3.00
2022-07-29T01:02:07.267Z,3.80
2022-07-29T01:02:38.206Z,3.30
2022-07-29T01:03:08.726Z,3.70
2022-07-29T01:03:39.713Z,3.40
2022-07-29T01:04:10.404Z,3.40
2022-07-29T01:04:40.900Z,3.60
2022-07-29T01:05:11.875Z,3.70
2022-07-29T01:05:50.682Z,3.40
2022-07-29T01:06:14.802Z,3.80
2022-07-29T01:06:44.420Z,4.20
2022-07-29T01:07:14.912Z,3.70
2022-07-29T01:07:45.900Z,3.60
2022-07-29T01:08:16.832Z,3.70
2022-07-29T01:08:47.813Z,3.60
2022-07-29T01:09:18.728Z,3.30
2022-07-29T01:09:50.655Z,3.80
2022-07-29T01:10:20.556Z,3.80
2022-07-29T01:10:51.527Z,3.60
2022-07-29T01:11:22.466Z,4.10
2022-07-29T01:11:53.455Z,3.20
2022-07-29T01:12:24.554Z,3.60
2022-07-29T01:12:55.040Z,3.80
2022-07-29T01:13:25.955Z,3.90
2022-07-29T01:13:56.926Z,3.80
2022-07-29T01:14:27.857Z,3.30
2022-07-29T01:14:58.850Z,3.10
2022-07-29T01:15:29.540Z,4.10
2022-07-29T01:16:00.170Z,3.50
2022-07-29T01:16:30.685Z,3.50
2022-07-29T01:17:01.142Z,3.70
2022-07-29T01:17:32.058Z,3.30
2022-07-29T01:18:02.955Z,3.20
2022-07-29T01:18:34.207Z,3.50
2022-07-29T01:19:04.399Z,3.50
2022-07-29T01:19:35.333Z,4.00
2022-07-29T01:20:06.350Z,3.40
2022-07-29T01:20:36.839Z,3.00
2022-07-29T01:21:07.827Z,3.40
2022-07-29T01:21:39.008Z,3.10
2022-07-29T01:22:09.621Z,3.00
2022-07-29T01:22:40.081Z,3.00
2022-07-29T01:23:11.010Z,3.40
2022-07-29T01:23:42.004Z,3.50
2022-07-29T01:24:13.512Z,3.20
2022-07-29T01:24:43.792Z,3.40
2022-07-29T01:25:14.292Z,4.00
2022-07-29T01:25:44.772Z,3.60
2022-07-29T01:26:15.726Z,3.80
2022-07-29T01:26:47.687Z,3.60
2022-07-29T01:27:18.163Z,2.80
2022-07-29T01:27:48.246Z,3.50
2022-07-29T01:29:43.246Z,3.20
2022-07-29T01:30:14.740Z,3.50
2022-07-29T01:30:44.912Z,4.50
2022-07-29T01:31:25.060Z,3.60
2022-07-29T01:31:58.825Z,3.40
2022-07-29T01:32:28.391Z,3.50
2022-07-29T01:32:49.636Z,3.40
2022-07-29T01:33:19.107Z,2.70
2022-07-29T01:33:50.066Z,3.40
2022-07-29T01:34:21.193Z,3.60
2022-07-29T01:34:51.679Z,3.90
2022-07-29T01:35:22.176Z,3.60
2022-07-29T01:35:53.065Z,3.30
2022-07-29T01:36:24.035Z,4.00
2022-07-29T01:36:54.944Z,3.60
2022-07-29T01:37:26.137Z,3.60
2022-07-29T01:37:56.629Z,3.00
2022-07-29T01:38:27.546Z,3.40
2022-07-29T01:38:58.466Z,4.30
2022-07-29T01:39:29.440Z,3.50
2022-07-29T01:40:00.351Z,3.30
2022-07-29T01:40:31.565Z,2.90
2022-07-29T01:41:02.066Z,3.30
2022-07-29T01:41:33.067Z,3.30
2022-07-29T01:42:03.983Z,3.10
2022-07-29T01:42:34.912Z,3.20
2022-07-29T01:43:05.834Z,3.60
2022-07-29T01:43:36.945Z,3.50
2022-07-29T01:44:07.433Z,3.30
2022-07-29T01:44:38.096Z,4.20
2022-07-29T01:45:09.022Z,3.30
2022-07-29T01:45:39.901Z,3.50
2022-07-29T01:46:10.971Z,3.20
2022-07-29T01:46:41.714Z,3.00
2022-07-29T01:47:12.158Z,3.30
2022-07-29T01:47:43.117Z,3.30
2022-07-29T01:48:14.116Z,3.40
2022-07-29T01:48:45.201Z,3.60
2022-07-29T01:49:16.129Z,4.40
2022-07-29T01:49:46.982Z,2.90
2022-07-29T01:50:17.499Z,3.30
2022-07-29T01:50:47.921Z,3.50
2022-07-29T01:51:18.835Z,3.40
2022-07-29T01:51:49.857Z,3.60
2022-07-29T01:52:20.288Z,3.10
2022-07-29T01:52:51.398Z,3.70
2022-07-29T01:53:21.883Z,3.60
2022-07-29T01:53:52.808Z,3.40
2022-07-29T01:54:23.725Z,3.70
2022-07-29T01:54:54.647Z,2.90
2022-07-29T01:55:25.643Z,3.10
2022-07-29T01:55:56.754Z,3.40
2022-07-29T01:56:27.243Z,3.30
2022-07-29T01:56:58.228Z,3.90
2022-07-29T01:57:29.144Z,4.20
2022-07-29T01:58:00.092Z,3.50
2022-07-29T01:58:31.076Z,2.80
2022-07-29T01:59:02.186Z,3.10
2022-07-29T01:59:32.687Z,2.90
2022-07-29T02:00:03.606Z,3.10
2022-07-29T02:00:34.589Z,3.10
2022-07-29T02:01:05.073Z,3.50
2022-07-29T02:01:36.109Z,3.30
2022-07-29T02:02:06.962Z,3.20
2022-07-29T02:02:37.166Z,3.50
2022-07-29T02:03:08.156Z,3.70
2022-07-29T02:03:39.072Z,3.30
2022-07-29T02:04:09.981Z,3.30
2022-07-29T02:04:40.981Z,3.20
2022-07-29T02:05:11.654Z,3.40
2022-07-29T02:05:42.210Z,3.50
2022-07-29T02:06:13.125Z,3.50
2022-07-29T02:06:44.053Z,3.90
2022-07-29T02:07:15.057Z,3.50
2022-07-29T02:07:45.982Z,3.50
2022-07-29T02:08:17.168Z,3.00
2022-07-29T02:08:47.649Z,3.10
2022-07-29T02:09:18.574Z,3.10
2022-07-29T02:09:49.484Z,2.80
2022-07-29T02:10:20.396Z,2.90
2022-07-29T02:10:52.532Z,3.20
2022-07-29T02:11:21.997Z,3.10
2022-07-29T02:11:52.979Z,3.20
2022-07-29T02:12:23.965Z,3.50
2022-07-29T02:12:54.893Z,3.20
2022-07-29T02:13:25.803Z,4.00
2022-07-29T02:13:56.910Z,3.20
2022-07-29T02:14:27.391Z,3.20
2022-07-29T02:14:58.308Z,3.70
2022-07-29T02:15:29.295Z,3.10
2022-07-29T02:16:00.424Z,3.50
2022-07-29T02:16:31.011Z,3.80
2022-07-29T02:17:01.685Z,3.50
2022-07-29T02:17:32.175Z,3.60
2022-07-29T02:18:03.081Z,3.30
2022-07-29T02:18:34.048Z,3.80
2022-07-29T02:19:04.973Z,3.40
2022-07-29T02:19:35.956Z,3.10
2022-07-29T02:20:07.056Z,4.00
2022-07-29T02:20:37.514Z,3.30
2022-07-29T02:21:14.721Z,3.50
2022-07-29T02:21:39.358Z,3.10
2022-07-29T02:22:10.268Z,3.70
2022-07-29T02:22:41.466Z,3.90
2022-07-29T02:23:11.890Z,3.50
2022-07-29T02:23:50.374Z,3.70
2022-07-29T02:24:14.972Z,3.50
2022-07-29T02:24:44.174Z,3.30
2022-07-29T02:25:15.273Z,3.40
2022-07-29T02:25:45.765Z,3.20
2022-07-29T02:26:16.754Z,3.60
2022-07-29T02:26:47.702Z,3.40
2022-07-29T02:27:18.626Z,3.10
2022-07-29T02:27:49.752Z,3.80
2022-07-29T02:28:20.421Z,3.40
2022-07-29T02:28:50.917Z,3.00
2022-07-29T02:29:21.891Z,3.50
2022-07-29T02:29:52.876Z,4.00
2022-07-29T02:30:23.863Z,4.10
2022-07-29T02:30:54.863Z,3.40
2022-07-29T02:31:25.783Z,3.20
2022-07-29T02:31:56.282Z,2.90
2022-07-29T02:32:27.209Z,3.10
2022-07-29T02:32:58.118Z,3.80
2022-07-29T02:33:29.033Z,2.70
2022-07-29T02:33:59.949Z,3.20
2022-07-29T02:34:31.050Z,3.50
2022-07-29T02:35:01.505Z,3.60
2022-07-29T02:35:34.554Z,3.80
2022-07-29T02:36:03.265Z,3.90
2022-07-29T02:36:34.256Z,3.50
2022-07-29T02:37:05.175Z,2.80
2022-07-29T02:37:36.244Z,3.90
2022-07-29T02:38:06.714Z,3.20
2022-07-29T02:38:37.626Z,3.40
2022-07-29T02:39:10.562Z,4.20
2022-07-29T02:39:39.413Z,3.40
2022-07-29T02:40:10.418Z,4.00
2022-07-29T02:40:41.592Z,3.00
2022-07-29T02:41:12.067Z,3.40
2022-07-29T02:41:42.995Z,3.30
2022-07-29T02:42:13.980Z,3.40
2022-07-29T02:42:44.971Z,3.00
2022-07-29T02:43:15.928Z,3.30
2022-07-29T02:43:47.036Z,3.20
2022-07-29T02:44:17.887Z,3.90
2022-07-29T02:44:48.032Z,3.30
2022-07-29T02:45:18.940Z,3.20
2022-07-29T02:45:51.832Z,2.90
2022-07-29T02:46:28.594Z,3.00
2022-07-29T02:46:52.747Z,3.30
2022-07-29T02:47:22.445Z,3.70
2022-07-29T02:47:53.356Z,2.70
2022-07-29T02:48:24.333Z,2.80
2022-07-29T02:48:55.384Z,2.90
2022-07-29T02:49:26.193Z,3.60
2022-07-29T02:49:56.814Z,3.50
2022-07-29T02:50:27.742Z,3.30
2022-07-29T02:50:58.726Z,2.90
2022-07-29T02:51:41.442Z,3.60
2022-07-29T02:52:01.850Z,2.80
2022-07-29T02:52:31.268Z,2.90
2022-07-29T02:53:02.149Z,2.80
2022-07-29T02:53:33.113Z,3.20
2022-07-29T02:54:04.088Z,4.20
2022-07-29T02:54:35.003Z,3.90
2022-07-29T02:55:06.108Z,2.90
2022-07-29T02:55:36.597Z,3.20
2022-07-29T02:56:07.506Z,3.20
2022-07-29T02:56:38.464Z,3.00
2022-07-29T02:57:09.394Z,3.30
2022-07-29T02:57:54.095Z,3.50
2022-07-29T02:58:12.264Z,2.70
2022-07-29T02:58:41.698Z,2.90
2022-07-29T02:59:12.609Z,3.20
2022-07-29T02:59:43.522Z,3.00
2022-07-29T03:00:14.512Z,3.80
2022-07-29T03:00:45.624Z,3.00
2022-07-29T03:01:21.104Z,3.80
2022-07-29T03:01:48.099Z,4.00
2022-07-29T03:02:17.603Z,3.30
2022-07-29T03:02:48.132Z,3.30
2022-07-29T03:03:19.233Z,3.20
2022-07-29T03:03:49.715Z,3.40
2022-07-29T03:04:21.199Z,3.50
2022-07-29T03:04:51.388Z,2.30
2022-07-29T03:05:22.196Z,3.00
2022-07-29T03:05:53.185Z,2.30
2022-07-29T03:06:37.806Z,3.30
2022-07-29T03:06:55.798Z,2.60
2022-07-29T03:07:25.188Z,3.40
2022-07-29T03:07:56.175Z,4.20
2022-07-29T03:08:27.090Z,3.10
2022-07-29T03:08:58.255Z,3.40
2022-07-29T03:09:28.679Z,3.20
2022-07-29T03:09:59.683Z,3.10
2022-07-29T03:10:30.604Z,2.90
2022-07-29T03:11:01.591Z,3.30
2022-07-29T03:11:40.160Z,3.00
2022-07-29T03:12:04.491Z,3.20
2022-07-29T03:12:33.964Z,2.80
2022-07-29T03:13:04.877Z,3.30
2022-07-29T03:13:35.785Z,3.70
2022-07-29T03:14:06.746Z,3.20
2022-07-29T03:14:37.853Z,3.10
2022-07-29T03:15:08.332Z,3.30
2022-07-29T03:15:39.399Z,3.60
2022-07-29T03:16:09.890Z,3.40
2022-07-29T03:16:41.379Z,3.50
2022-07-29T03:17:11.002Z,3.60
2022-07-29T03:17:42.104Z,3.30
2022-07-29T03:18:12.575Z,3.20
2022-07-29T03:18:43.495Z,3.20
2022-07-29T03:19:14.454Z,3.10
2022-07-29T03:19:45.368Z,3.60
2022-07-29T03:20:16.273Z,2.90
2022-07-29T03:20:47.391Z,3.40
2022-07-29T03:21:17.880Z,3.10
2022-07-29T03:21:48.375Z,3.10
2022-07-29T03:22:19.408Z,3.00
2022-07-29T03:22:49.855Z,3.50
2022-07-29T03:23:20.772Z,3.80
2022-07-29T03:23:51.883Z,3.10
2022-07-29T03:24:22.368Z,3.10
2022-07-29T03:24:52.871Z,3.10
2022-07-29T03:25:23.798Z,3.20
2022-07-29T03:25:54.726Z,3.20
2022-07-29T03:26:25.266Z,3.20
2022-07-29T03:26:56.361Z,3.60
2022-07-29T03:27:26.856Z,3.50
2022-07-29T03:27:57.776Z,3.30
2022-07-29T03:28:28.768Z,3.50
2022-07-29T03:28:59.715Z,3.50
2022-07-29T03:29:33.994Z,4.00
2022-07-29T03:30:01.525Z,2.60
2022-07-29T03:30:32.239Z,3.40
2022-07-29T03:31:02.922Z,2.90
2022-07-29T03:31:33.883Z,3.50
2022-07-29T03:32:06.006Z,3.20
2022-07-29T03:32:35.234Z,3.50
2022-07-29T03:33:13.391Z,4.00
2022-07-29T03:33:37.825Z,3.00
2022-07-29T03:34:07.322Z,3.10
2022-07-29T03:34:38.317Z,3.20
2022-07-29T03:35:08.826Z,3.90
2022-07-29T03:35:39.997Z,3.20
2022-07-29T03:36:10.479Z,3.40
2022-07-29T03:36:41.462Z,3.60
2022-07-29T03:37:12.421Z,3.80
2022-07-29T03:37:43.342Z,2.80
2022-07-29T03:38:14.330Z,3.10
2022-07-29T03:38:45.493Z,2.70
2022-07-29T03:39:15.980Z,3.00
2022-07-29T03:39:46.963Z,3.40
2022-07-29T03:40:17.907Z,3.90
2022-07-29T03:40:48.893Z,2.70
2022-07-29T03:41:22.560Z,3.80
2022-07-29T03:41:50.365Z,3.20
2022-07-29T03:42:20.869Z,4.40
2022-07-29T03:42:51.360Z,4.00
2022-07-29T03:43:22.310Z,3.40
2022-07-29T03:43:53.227Z,2.90
2022-07-29T03:44:24.209Z,3.20
2022-07-29T03:44:55.370Z,2.60
2022-07-29T03:45:25.784Z,3.10
2022-07-29T03:45:56.824Z,2.90
2022-07-29T03:46:27.369Z,3.40
2022-07-29T03:46:58.113Z,2.70
2022-07-29T03:47:49.961Z,3.00
2022-07-29T03:48:01.401Z,2.80
2022-07-29T03:48:30.502Z,2.70
2022-07-29T03:49:01.532Z,3.50
2022-07-29T03:49:32.094Z,3.10
2022-07-29T03:50:03.083Z,4.30
2022-07-29T03:50:34.261Z,2.50
2022-07-29T03:51:04.713Z,3.80
2022-07-29T03:51:35.633Z,3.00
2022-07-29T03:52:06.541Z,2.80
2022-07-29T03:52:37.517Z,3.00
2022-07-29T03:53:08.498Z,3.20
2022-07-29T03:53:39.617Z,3.70
2022-07-29T03:54:10.454Z,3.20
2022-07-29T03:54:40.989Z,2.70
2022-07-29T03:55:11.978Z,3.30
2022-07-29T03:55:42.894Z,4.00
2022-07-29T03:56:13.877Z,3.10
2022-07-29T03:56:44.933Z,2.90
2022-07-29T03:57:15.369Z,3.20
2022-07-29T03:57:46.255Z,3.60
2022-07-29T03:58:17.236Z,3.10
2022-07-29T03:58:48.097Z,3.40
2022-07-29T03:59:19.033Z,3.30
2022-07-29T03:59:50.131Z,2.90
2022-07-29T04:00:20.664Z,3.80
2022-07-29T04:00:51.188Z,3.20
2022-07-29T04:01:22.163Z,2.80
2022-07-29T04:01:53.001Z,2.70
2022-07-29T04:02:27.331Z,3.40
2022-07-29T04:02:55.481Z,3.30
2022-07-29T04:03:25.047Z,2.60
2022-07-29T04:03:55.853Z,3.00
2022-07-29T04:04:26.496Z,3.30
2022-07-29T04:04:57.335Z,3.30
2022-07-29T04:05:28.536Z,3.90
2022-07-29T04:05:58.951Z,3.90
2022-07-29T04:06:29.953Z,3.00
2022-07-29T04:07:00.948Z,3.40
2022-07-29T04:07:31.921Z,3.30
2022-07-29T04:08:02.903Z,3.90
2022-07-29T04:08:34.093Z,3.70
2022-07-29T04:09:04.578Z,3.30
2022-07-29T04:09:35.599Z,3.10
2022-07-29T04:10:05.975Z,2.90
2022-07-29T04:10:36.918Z,2.60
2022-07-29T04:11:07.889Z,3.70
2022-07-29T04:12:03.511Z,2.90
2022-07-29T04:12:10.662Z,3.50
2022-07-29T04:12:40.100Z,3.10
2022-07-29T04:13:11.039Z,2.60
2022-07-29T04:13:42.040Z,3.30
2022-07-29T04:14:13.119Z,3.20
2022-07-29T04:14:43.275Z,3.10
2022-07-29T04:15:14.130Z,3.40
2022-07-29T04:15:45.199Z,3.60
2022-07-29T04:16:16.006Z,3.60
2022-07-29T04:16:46.434Z,3.10
2022-07-29T04:17:17.484Z,3.70
2022-07-29T04:17:47.989Z,3.10
2022-07-29T04:18:18.769Z,3.40
2022-07-29T04:18:49.676Z,3.90
2022-07-29T04:19:20.727Z,3.00
2022-07-29T04:19:51.273Z,2.60
2022-07-29T04:20:21.956Z,3.20
2022-07-29T04:20:52.448Z,3.20
2022-07-29T04:21:23.408Z,3.20
2022-07-29T04:21:54.462Z,2.90
2022-07-29T04:22:24.882Z,2.90
2022-07-29T04:22:55.634Z,2.80
2022-07-29T04:23:26.753Z,4.20
2022-07-29T04:23:57.252Z,3.30
2022-07-29T04:24:27.727Z,3.20
2022-07-29T04:25:03.362Z,3.20
2022-07-29T04:25:29.659Z,3.10
2022-07-29T04:26:00.843Z,3.00
2022-07-29T04:26:31.272Z,3.30
2022-07-29T04:27:02.231Z,3.10
2022-07-29T04:27:33.111Z,2.70
2022-07-29T04:28:04.156Z,3.40
2022-07-29T04:28:34.823Z,3.10
2022-07-29T04:29:05.971Z,3.20
2022-07-29T04:29:36.475Z,2.90
2022-07-29T04:30:08.994Z,3.20
2022-07-29T04:30:37.967Z,3.50
2022-07-29T04:31:08.928Z,2.90
2022-07-29T04:31:40.127Z,3.50
2022-07-29T04:32:10.622Z,3.70
2022-07-29T04:32:41.556Z,3.60
2022-07-29T04:33:12.402Z,3.00
2022-07-29T04:33:43.342Z,3.30
2022-07-29T04:34:14.670Z,3.90
2022-07-29T04:34:45.364Z,3.20
2022-07-29T04:35:15.840Z,3.60
2022-07-29T04:35:50.050Z,3.70
2022-07-29T04:36:26.886Z,3.30
2022-07-29T04:36:49.578Z,3.00
2022-07-29T04:37:19.206Z,3.70
2022-07-29T04:37:49.658Z,2.60
2022-07-29T04:38:20.568Z,3.60
2022-07-29T04:38:51.507Z,3.20
2022-07-29T04:39:23.350Z,3.10
2022-07-29T04:39:53.355Z,3.20
2022-07-29T04:40:24.478Z,3.20
2022-07-29T04:40:54.936Z,3.60
2022-07-29T04:41:32.549Z,3.50
2022-07-29T04:41:56.525Z,2.70
2022-07-29T04:42:27.525Z,4.00
2022-07-29T04:42:58.067Z,3.30
2022-07-29T04:43:28.640Z,3.30
2022-07-29T04:43:59.523Z,3.00
2022-07-29T04:44:30.390Z,2.80
2022-07-29T04:45:01.483Z,2.60
2022-07-29T04:45:32.361Z,2.80
2022-07-29T04:46:02.930Z,2.80
2022-07-29T04:46:33.585Z,3.30
2022-07-29T04:47:04.187Z,2.90
2022-07-29T04:47:35.131Z,3.40
2022-07-29T04:48:05.617Z,3.10
2022-07-29T04:48:36.796Z,2.80
2022-07-29T04:49:07.354Z,3.10
2022-07-29T04:49:37.900Z,3.00
2022-07-29T04:50:08.911Z,3.00
2022-07-29T04:50:39.405Z,3.20
2022-07-29T04:51:10.335Z,3.50
2022-07-29T04:51:41.545Z,4.40
2022-07-29T04:52:12.003Z,3.40
2022-07-29T04:52:42.907Z,2.70
2022-07-29T04:53:13.769Z,3.20
2022-07-29T04:53:44.751Z,3.50
2022-07-29T04:54:15.934Z,2.80
2022-07-29T04:54:46.754Z,3.60
2022-07-29T04:55:17.177Z,2.80
2022-07-29T04:55:48.183Z,4.00
2022-07-29T04:56:18.629Z,3.50
2022-07-29T04:56:49.542Z,2.70
2022-07-29T04:57:20.410Z,3.90
2022-07-29T04:57:51.567Z,4.50
2022-07-29T04:58:22.071Z,3.10
2022-07-29T04:58:53.038Z,3.00
2022-07-29T04:59:23.946Z,2.90
2022-07-29T04:59:54.912Z,3.40
2022-07-29T05:00:28.005Z,3.10
2022-07-29T05:00:56.723Z,3.40
2022-07-29T05:01:27.672Z,3.80
2022-07-29T05:01:58.253Z,2.80
2022-07-29T05:02:28.736Z,3.60
2022-07-29T05:02:59.569Z,3.30
2022-07-29T05:03:30.268Z,3.70
2022-07-29T05:04:00.920Z,3.10
2022-07-29T05:04:31.685Z,3.70
2022-07-29T05:05:02.547Z,3.60
2022-07-29T05:05:33.631Z,3.20
2022-07-29T05:06:04.116Z,3.40
2022-07-29T05:06:35.309Z,3.20
2022-07-29T05:07:05.810Z,3.70
2022-07-29T05:07:36.719Z,4.40
2022-07-29T05:08:07.626Z,3.20
2022-07-29T05:08:38.601Z,3.20
2022-07-29T05:09:09.135Z,3.90
2022-07-29T05:09:40.219Z,2.90
2022-07-29T05:10:10.710Z,4.00
2022-07-29T05:10:41.624Z,3.40
2022-07-29T05:11:14.921Z,3.30
2022-07-29T05:11:43.397Z,2.90
2022-07-29T05:12:13.953Z,3.60
2022-07-29T05:12:44.616Z,3.10
2022-07-29T05:13:15.129Z,3.00
2022-07-29T05:13:47.115Z,3.10
2022-07-29T05:14:17.323Z,3.10
2022-07-29T05:14:47.897Z,3.10
2022-07-29T05:15:18.871Z,2.90
2022-07-29T05:15:50.216Z,2.80
2022-07-29T05:16:20.802Z,3.70
2022-07-29T05:16:51.478Z,3.10
2022-07-29T05:17:22.512Z,2.70
2022-07-29T05:17:53.004Z,2.70
2022-07-29T05:18:25.981Z,3.30
2022-07-29T05:18:54.672Z,2.80
2022-07-29T05:19:25.174Z,3.50
2022-07-29T05:19:56.192Z,3.30
2022-07-29T05:20:26.687Z,3.30
2022-07-29T05:20:57.689Z,3.90
2022-07-29T05:21:28.602Z,2.60
2022-07-29T05:21:59.680Z,3.50
2022-07-29T05:22:30.235Z,2.70
2022-07-29T05:23:00.749Z,4.20
2022-07-29T05:23:31.663Z,2.70
2022-07-29T05:24:02.579Z,3.30
2022-07-29T05:24:33.489Z,4.10
2022-07-29T05:25:08.965Z,4.00
2022-07-29T05:25:42.015Z,3.20
2022-07-29T05:26:05.935Z,3.30
2022-07-29T05:26:36.930Z,3.50
2022-07-29T05:27:08.063Z,2.90
2022-07-29T05:27:38.643Z,3.30
2022-07-29T05:28:09.076Z,3.10
2022-07-29T05:28:40.053Z,3.60
2022-07-29T05:29:44.462Z,3.20
2022-07-29T05:29:45.593Z,2.70
2022-07-29T05:30:12.844Z,3.30
2022-07-29T05:30:43.384Z,3.80
2022-07-29T05:31:13.878Z,4.20
2022-07-29T05:31:44.372Z,2.60
2022-07-29T05:32:14.855Z,4.50
2022-07-29T05:32:45.981Z,3.10
2022-07-29T05:33:35.463Z,3.20
2022-07-29T05:33:48.085Z,4.30
2022-07-29T05:34:18.003Z,4.30
2022-07-29T05:34:50.762Z,3.90
2022-07-29T05:35:19.104Z,3.30
2022-07-29T05:35:49.710Z,3.70
2022-07-29T05:36:20.250Z,2.70
2022-07-29T05:36:50.770Z,3.40
2022-07-29T05:37:21.358Z,2.90
2022-07-29T05:37:51.878Z,3.10
2022-07-29T05:38:22.407Z,4.50
2022-07-29T05:38:53.094Z,2.90
2022-07-29T05:39:47.392Z,3.40
2022-07-29T05:39:57.193Z,3.60
2022-07-29T05:40:25.548Z,2.80
2022-07-29T05:40:56.056Z,3.20
2022-07-29T05:41:26.600Z,3.80
2022-07-29T05:41:57.279Z,3.80
2022-07-29T05:42:27.802Z,3.30
2022-07-29T05:42:58.354Z,2.80
2022-07-29T05:43:28.861Z,3.50
2022-07-29T05:44:00.069Z,3.50
2022-07-29T05:44:30.569Z,2.90
2022-07-29T05:45:01.311Z,3.90
2022-07-29T05:45:31.831Z,2.90
2022-07-29T05:46:02.415Z,3.00
2022-07-29T05:46:33.091Z,2.80
2022-07-29T05:47:03.489Z,3.70
2022-07-29T05:47:34.591Z,3.70
2022-07-29T05:48:05.295Z,3.30
2022-07-29T05:48:35.830Z,3.10
2022-07-29T05:49:06.411Z,2.80
2022-07-29T05:49:36.945Z,3.40
2022-07-29T05:50:07.781Z,3.00
2022-07-29T05:50:38.279Z,3.50
2022-07-29T05:51:09.167Z,2.90
2022-07-29T05:51:40.080Z,4.40
2022-07-29T05:52:11.106Z,3.30
2022-07-29T05:52:41.562Z,3.50
2022-07-29T05:53:19.661Z,3.50
2022-07-29T05:53:44.599Z,3.10
2022-07-29T05:54:14.448Z,3.20
2022-07-29T05:54:44.740Z,3.30
2022-07-29T05:55:15.238Z,2.70
2022-07-29T05:55:46.232Z,4.10
2022-07-29T05:56:16.919Z,3.30
2022-07-29T05:56:47.422Z,2.60
2022-07-29T05:57:18.239Z,2.90
2022-07-29T05:57:49.167Z,3.20
2022-07-29T05:58:20.234Z,3.30
2022-07-29T05:58:50.739Z,3.30
2022-07-29T05:59:23.404Z,2.90
2022-07-29T05:59:52.522Z,3.50
2022-07-29T06:00:23.035Z,2.50
2022-07-29T06:00:53.536Z,3.00
2022-07-29T06:01:24.599Z,3.50
2022-07-29T06:01:55.202Z,2.50
2022-07-29T06:02:26.186Z,2.60
2022-07-29T06:02:56.694Z,2.70
2022-07-29T06:03:27.736Z,3.20
2022-07-29T06:03:58.265Z,2.70
2022-07-29T06:04:28.825Z,2.80
2022-07-29T06:04:59.350Z,3.50
2022-07-29T06:05:30.080Z,3.50
2022-07-29T06:06:00.563Z,2.60
2022-07-29T06:06:31.553Z,3.40
2022-07-29T06:07:02.071Z,2.60
2022-07-29T06:07:32.976Z,3.40
2022-07-29T06:08:03.882Z,3.90
2022-07-29T06:08:35.095Z,2.90
2022-07-29T06:09:12.117Z,3.10
2022-07-29T06:09:37.568Z,3.00
2022-07-29T06:10:07.107Z,2.90
2022-07-29T06:10:37.586Z,2.90
2022-07-29T06:11:08.257Z,2.50
2022-07-29T06:11:38.723Z,3.00
2022-07-29T06:12:09.636Z,2.80
2022-07-29T06:12:40.628Z,2.70
2022-07-29T06:13:11.638Z,2.90
2022-07-29T06:13:42.178Z,3.30
2022-07-29T06:14:13.058Z,2.80
2022-07-29T06:14:43.205Z,2.90
2022-07-29T06:15:13.831Z,2.80
2022-07-29T06:15:44.644Z,4.40
2022-07-29T06:16:15.772Z,7.40
2022-07-29T06:16:46.254Z,8.80
2022-07-29T06:17:16.810Z,9.60
2022-07-29T06:18:00.853Z,8.60
2022-07-29T06:18:19.677Z,8.90
2022-07-29T06:18:49.194Z,7.90
2022-07-29T06:19:19.842Z,9.90
2022-07-29T06:19:50.339Z,9.90
2022-07-29T06:20:27.010Z,9.00
2022-07-29T06:20:52.167Z,10.70
2022-07-29T06:21:22.654Z,9.80
2022-07-29T06:21:53.750Z,10.10
2022-07-29T06:22:24.257Z,10.50
2022-07-29T06:22:54.747Z,14.20
2022-07-29T06:23:25.647Z,11.30
2022-07-29T06:23:56.581Z,11.00
2022-07-29T06:24:27.528Z,9.40
2022-07-29T06:24:58.699Z,12.50
2022-07-29T06:25:29.274Z,11.00
2022-07-29T06:25:59.726Z,11.30
2022-07-29T06:26:32.628Z,10.90
2022-07-29T06:27:01.432Z,10.10
2022-07-29T06:27:32.358Z,10.10
2022-07-29T06:28:03.482Z,9.60
2022-07-29T06:28:33.975Z,9.80
2022-07-29T06:29:05.021Z,10.60
2022-07-29T06:29:35.506Z,8.90
2022-07-29T06:30:06.434Z,9.90
2022-07-29T06:30:37.518Z,9.20
2022-07-29T06:31:08.420Z,6.70
2022-07-29T06:31:39.073Z,9.20
2022-07-29T06:32:10.040Z,8.20
2022-07-29T06:32:43.244Z,8.00
2022-07-29T06:33:11.740Z,8.00
2022-07-29T06:33:42.746Z,5.40
2022-07-29T06:34:14.342Z,8.50
2022-07-29T06:34:46.287Z,7.00
2022-07-29T06:35:41.703Z,7.70
2022-07-29T06:35:53.216Z,8.80
2022-07-29T06:36:16.859Z,7.60
2022-07-29T06:36:47.622Z,6.70
2022-07-29T06:37:18.369Z,7.10
2022-07-29T06:37:49.265Z,6.80
2022-07-29T06:38:30.841Z,7.50
2022-07-29T06:38:52.306Z,7.70
2022-07-29T06:39:22.243Z,6.70
2022-07-29T06:39:56.663Z,7.30
2022-07-29T06:40:24.889Z,6.10
2022-07-29T06:40:54.383Z,7.20
2022-07-29T06:41:25.328Z,6.30
2022-07-29T06:41:56.484Z,8.70
2022-07-29T06:42:26.986Z,6.20
2022-07-29T06:42:57.903Z,6.40
2022-07-29T06:43:28.799Z,10.20
2022-07-29T06:43:59.694Z,10.80
2022-07-29T06:44:30.691Z,10.00
2022-07-29T06:45:04.936Z,9.00
2022-07-29T06:45:32.870Z,8.70
2022-07-29T06:46:02.359Z,9.50
2022-07-29T06:46:33.166Z,7.40
2022-07-29T06:47:03.896Z,9.70
2022-07-29T06:47:35.081Z,7.70
2022-07-29T06:48:05.546Z,8.00
2022-07-29T06:48:36.651Z,9.30
2022-07-29T06:49:07.234Z,7.40
2022-07-29T06:49:37.834Z,7.10
2022-07-29T06:50:08.628Z,8.50
2022-07-29T06:50:39.746Z,13.10
2022-07-29T06:51:10.235Z,11.60